sensor_id;sensor_type;location;lat;lon;timestamp;temperature;humidity
33109;HTU21D;19481;51.118;6.940;2023-04-20T00:03:28;8.14;36.47
33109;HTU21D;19481;51.118;6.940;2023-04-20T00:08:32;8.19;36.36
33109;HTU21D;19481;51.118;6.940;2023-04-20T00:13:35;8.37;35.92
33109;HTU21D;19481;51.118;6.940;2023-04-20T00:18:36;8.50;35.73
33109;HTU21D;19481;51.118;6.940;2023-04-20T00:23:38;8.50;35.92
33109;HTU21D;19481;51.118;6.940;2023-04-20T00:28:41;8.64;35.73
33109;HTU21D;19481;51.118;6.940;2023-04-20T00:33:42;8.61;36.11
33109;HTU21D;19481;51.118;6.940;2023-04-20T00:38:44;8.67;35.99
33109;HTU21D;19481;51.118;6.940;2023-04-20T00:43:51;8.70;36.07
33109;HTU21D;19481;51.118;6.940;2023-04-20T00:48:53;8.73;36.09
33109;HTU21D;19481;51.118;6.940;2023-04-20T00:53:55;8.71;36.29
33109;HTU21D;19481;51.118;6.940;2023-04-20T00:58:58;8.65;36.50
33109;HTU21D;19481;51.118;6.940;2023-04-20T01:04:00;8.61;36.43
33109;HTU21D;19481;51.118;6.940;2023-04-20T01:09:02;8.50;36.61
33109;HTU21D;19481;51.118;6.940;2023-04-20T01:14:05;8.34;37.01
33109;HTU21D;19481;51.118;6.940;2023-04-20T01:19:06;8.26;37.08
33109;HTU21D;19481;51.118;6.940;2023-04-20T01:24:09;8.11;37.36
33109;HTU21D;19481;51.118;6.940;2023-04-20T01:29:11;8.07;37.36
33109;HTU21D;19481;51.118;6.940;2023-04-20T01:34:12;8.09;37.28
33109;HTU21D;19481;51.118;6.940;2023-04-20T01:39:18;8.11;37.23
33109;HTU21D;19481;51.118;6.940;2023-04-20T01:44:20;8.14;37.17
33109;HTU21D;19481;51.118;6.940;2023-04-20T01:49:21;8.15;37.13
33109;HTU21D;19481;51.118;6.940;2023-04-20T01:54:24;8.15;37.21
33109;HTU21D;19481;51.118;6.940;2023-04-20T01:59:26;8.15;37.35
33109;HTU21D;19481;51.118;6.940;2023-04-20T02:04:27;8.12;37.35
33109;HTU21D;19481;51.118;6.940;2023-04-20T02:09:30;8.08;37.44
33109;HTU21D;19481;51.118;6.940;2023-04-20T02:14:32;8.09;37.34
33109;HTU21D;19481;51.118;6.940;2023-04-20T02:19:33;8.12;37.26
33109;HTU21D;19481;51.118;6.940;2023-04-20T02:24:36;8.12;37.29
33109;HTU21D;19481;51.118;6.940;2023-04-20T02:29:38;8.04;37.52
33109;HTU21D;19481;51.118;6.940;2023-04-20T02:34:40;8.07;37.46
33109;HTU21D;19481;51.118;6.940;2023-04-20T02:39:43;8.03;37.64
33109;HTU21D;19481;51.118;6.940;2023-04-20T02:44:45;8.02;37.62
33109;HTU21D;19481;51.118;6.940;2023-04-20T02:49:46;8.01;37.70
33109;HTU21D;19481;51.118;6.940;2023-04-20T02:54:49;7.92;37.95
33109;HTU21D;19481;51.118;6.940;2023-04-20T02:59:51;7.85;38.00
33109;HTU21D;19481;51.118;6.940;2023-04-20T03:04:53;7.78;38.04
33109;HTU21D;19481;51.118;6.940;2023-04-20T03:09:56;7.77;38.08
33109;HTU21D;19481;51.118;6.940;2023-04-20T03:14:57;7.77;37.95
33109;HTU21D;19481;51.118;6.940;2023-04-20T03:19:59;7.76;37.92
33109;HTU21D;19481;51.118;6.940;2023-04-20T03:25:02;7.75;37.98
33109;HTU21D;19481;51.118;6.940;2023-04-20T03:30:05;7.73;38.06
33109;HTU21D;19481;51.118;6.940;2023-04-20T03:35:08;7.68;38.23
33109;HTU21D;19481;51.118;6.940;2023-04-20T03:40:11;7.67;38.29
33109;HTU21D;19481;51.118;6.940;2023-04-20T03:45:14;7.65;38.49
33109;HTU21D;19481;51.118;6.940;2023-04-20T03:50:15;7.68;38.65
33109;HTU21D;19481;51.118;6.940;2023-04-20T03:55:18;7.64;38.74
33109;HTU21D;19481;51.118;6.940;2023-04-20T04:00:20;7.56;39.11
33109;HTU21D;19481;51.118;6.940;2023-04-20T04:05:23;7.54;39.25
33109;HTU21D;19481;51.118;6.940;2023-04-20T04:10:27;7.55;39.26
33109;HTU21D;19481;51.118;6.940;2023-04-20T04:15:28;7.67;39.02
33109;HTU21D;19481;51.118;6.940;2023-04-20T04:20:30;7.70;39.17
33109;HTU21D;19481;51.118;6.940;2023-04-20T04:25:33;7.67;39.35
33109;HTU21D;19481;51.118;6.940;2023-04-20T04:30:37;7.75;39.36
33109;HTU21D;19481;51.118;6.940;2023-04-20T04:35:39;7.73;39.69
33109;HTU21D;19481;51.118;6.940;2023-04-20T04:40:44;7.72;39.73
33109;HTU21D;19481;51.118;6.940;2023-04-20T04:45:46;7.76;39.97
33109;HTU21D;19481;51.118;6.940;2023-04-20T04:50:49;7.81;39.97
33109;HTU21D;19481;51.118;6.940;2023-04-20T04:55:52;7.75;40.37
33109;HTU21D;19481;51.118;6.940;2023-04-20T05:00:53;7.75;41.19
33109;HTU21D;19481;51.118;6.940;2023-04-20T05:05:55;7.58;42.94
33109;HTU21D;19481;51.118;6.940;2023-04-20T05:10:58;7.55;42.77
33109;HTU21D;19481;51.118;6.940;2023-04-20T05:16:00;7.55;43.40
33109;HTU21D;19481;51.118;6.940;2023-04-20T05:21:02;7.56;43.40
33109;HTU21D;19481;51.118;6.940;2023-04-20T05:26:05;7.62;43.19
33109;HTU21D;19481;51.118;6.940;2023-04-20T05:31:07;7.68;43.47
33109;HTU21D;19481;51.118;6.940;2023-04-20T05:36:08;7.68;43.51
33109;HTU21D;19481;51.118;6.940;2023-04-20T05:41:11;7.74;43.48
33109;HTU21D;19481;51.118;6.940;2023-04-20T05:46:13;7.83;43.65
33109;HTU21D;19481;51.118;6.940;2023-04-20T05:51:15;7.79;44.13
33109;HTU21D;19481;51.118;6.940;2023-04-20T05:56:18;7.87;43.89
33109;HTU21D;19481;51.118;6.940;2023-04-20T06:01:19;7.89;44.14
33109;HTU21D;19481;51.118;6.940;2023-04-20T06:06:21;7.90;44.67
33109;HTU21D;19481;51.118;6.940;2023-04-20T06:11:24;7.89;44.83
33109;HTU21D;19481;51.118;6.940;2023-04-20T06:16:26;7.88;46.28
33109;HTU21D;19481;51.118;6.940;2023-04-20T06:21:28;7.98;45.32
33109;HTU21D;19481;51.118;6.940;2023-04-20T06:26:31;7.93;45.59
33109;HTU21D;19481;51.118;6.940;2023-04-20T06:31:33;8.06;45.34
33109;HTU21D;19481;51.118;6.940;2023-04-20T06:36:35;8.21;45.01
33109;HTU21D;19481;51.118;6.940;2023-04-20T06:41:38;8.15;46.24
33109;HTU21D;19481;51.118;6.940;2023-04-20T06:46:39;8.12;47.27
33109;HTU21D;19481;51.118;6.940;2023-04-20T06:51:41;8.03;46.69
33109;HTU21D;19481;51.118;6.940;2023-04-20T06:56:44;7.99;46.97
33109;HTU21D;19481;51.118;6.940;2023-04-20T07:01:46;8.03;46.92
33109;HTU21D;19481;51.118;6.940;2023-04-20T07:06:47;8.15;46.52
33109;HTU21D;19481;51.118;6.940;2023-04-20T07:11:51;8.23;46.51
33109;HTU21D;19481;51.118;6.940;2023-04-20T07:16:55;8.46;46.25
33109;HTU21D;19481;51.118;6.940;2023-04-20T07:21:57;8.60;45.94
33109;HTU21D;19481;51.118;6.940;2023-04-20T07:27:00;8.70;46.06
33109;HTU21D;19481;51.118;6.940;2023-04-20T07:32:02;8.64;46.60
33109;HTU21D;19481;51.118;6.940;2023-04-20T07:37:03;8.67;46.67
33109;HTU21D;19481;51.118;6.940;2023-04-20T07:42:06;8.59;46.46
33109;HTU21D;19481;51.118;6.940;2023-04-20T07:47:08;8.50;46.95
33109;HTU21D;19481;51.118;6.940;2023-04-20T07:52:10;8.45;47.08
33109;HTU21D;19481;51.118;6.940;2023-04-20T07:57:13;8.57;46.56
33109;HTU21D;19481;51.118;6.940;2023-04-20T08:02:15;8.71;46.23
33109;HTU21D;19481;51.118;6.940;2023-04-20T08:07:17;8.78;45.99
33109;HTU21D;19481;51.118;6.940;2023-04-20T08:12:20;8.88;46.31
33109;HTU21D;19481;51.118;6.940;2023-04-20T08:17:22;8.91;46.06
33109;HTU21D;19481;51.118;6.940;2023-04-20T08:22:23;8.97;46.25
33109;HTU21D;19481;51.118;6.940;2023-04-20T08:27:30;8.95;46.11
33109;HTU21D;19481;51.118;6.940;2023-04-20T08:32:32;9.08;45.86
33109;HTU21D;19481;51.118;6.940;2023-04-20T08:37:34;8.91;46.64
33109;HTU21D;19481;51.118;6.940;2023-04-20T08:42:38;8.97;46.74
33109;HTU21D;19481;51.118;6.940;2023-04-20T08:47:40;8.85;46.89
33109;HTU21D;19481;51.118;6.940;2023-04-20T08:52:42;8.95;46.72
33109;HTU21D;19481;51.118;6.940;2023-04-20T08:57:46;9.07;46.69
33109;HTU21D;19481;51.118;6.940;2023-04-20T09:02:49;9.10;46.37
33109;HTU21D;19481;51.118;6.940;2023-04-20T09:07:51;9.49;46.46
33109;HTU21D;19481;51.118;6.940;2023-04-20T09:12:54;10.12;44.45
33109;HTU21D;19481;51.118;6.940;2023-04-20T09:17:56;10.84;43.61
33109;HTU21D;19481;51.118;6.940;2023-04-20T09:23:10;11.78;44.70
33109;HTU21D;19481;51.118;6.940;2023-04-20T09:28:13;11.77;42.81
33109;HTU21D;19481;51.118;6.940;2023-04-20T09:33:17;11.19;44.75
33109;HTU21D;19481;51.118;6.940;2023-04-20T09:38:24;10.73;46.19
33109;HTU21D;19481;51.118;6.940;2023-04-20T09:43:28;10.39;46.38
33109;HTU21D;19481;51.118;6.940;2023-04-20T09:48:33;10.69;45.80
33109;HTU21D;19481;51.118;6.940;2023-04-20T09:53:35;10.86;45.54
33109;HTU21D;19481;51.118;6.940;2023-04-20T09:58:39;11.11;45.06
33109;HTU21D;19481;51.118;6.940;2023-04-20T10:03:41;10.71;45.46
33109;HTU21D;19481;51.118;6.940;2023-04-20T10:08:43;10.63;45.32
33109;HTU21D;19481;51.118;6.940;2023-04-20T10:13:46;10.29;45.47
33109;HTU21D;19481;51.118;6.940;2023-04-20T10:18:58;10.37;45.26
33109;HTU21D;19481;51.118;6.940;2023-04-20T10:24:01;10.56;44.03
33109;HTU21D;19481;51.118;6.940;2023-04-20T10:29:04;10.50;44.12
33109;HTU21D;19481;51.118;6.940;2023-04-20T10:34:08;10.73;43.70
33109;HTU21D;19481;51.118;6.940;2023-04-20T10:39:13;10.75;44.38
33109;HTU21D;19481;51.118;6.940;2023-04-20T10:44:17;11.49;42.29
33109;HTU21D;19481;51.118;6.940;2023-04-20T10:49:24;12.11;41.31
33109;HTU21D;19481;51.118;6.940;2023-04-20T10:54:26;12.01;41.94
33109;HTU21D;19481;51.118;6.940;2023-04-20T10:59:29;12.00;42.19
33109;HTU21D;19481;51.118;6.940;2023-04-20T11:04:32;11.93;42.40
33109;HTU21D;19481;51.118;6.940;2023-04-20T11:09:34;11.99;41.98
33109;HTU21D;19481;51.118;6.940;2023-04-20T11:14:51;11.60;42.95
33109;HTU21D;19481;51.118;6.940;2023-04-20T11:20:03;11.56;43.20
33109;HTU21D;19481;51.118;6.940;2023-04-20T11:25:06;11.33;43.33
33109;HTU21D;19481;51.118;6.940;2023-04-20T11:30:10;11.51;42.53
33109;HTU21D;19481;51.118;6.940;2023-04-20T11:35:12;12.48;40.46
33109;HTU21D;19481;51.118;6.940;2023-04-20T11:40:14;12.11;41.78
33109;HTU21D;19481;51.118;6.940;2023-04-20T11:45:17;11.92;41.62
33109;HTU21D;19481;51.118;6.940;2023-04-20T11:50:19;12.67;39.32
33109;HTU21D;19481;51.118;6.940;2023-04-20T11:55:21;12.90;39.94
33109;HTU21D;19481;51.118;6.940;2023-04-20T12:00:24;12.03;41.75
33109;HTU21D;19481;51.118;6.940;2023-04-20T12:05:25;12.41;40.88
33109;HTU21D;19481;51.118;6.940;2023-04-20T12:10:27;12.04;40.84
33109;HTU21D;19481;51.118;6.940;2023-04-20T12:15:30;13.14;37.91
33109;HTU21D;19481;51.118;6.940;2023-04-20T12:20:32;13.02;39.43
33109;HTU21D;19481;51.118;6.940;2023-04-20T12:25:33;13.43;38.66
33109;HTU21D;19481;51.118;6.940;2023-04-20T12:30:36;13.38;39.11
33109;HTU21D;19481;51.118;6.940;2023-04-20T12:35:38;12.75;40.43
33109;HTU21D;19481;51.118;6.940;2023-04-20T12:40:40;12.89;40.05
33109;HTU21D;19481;51.118;6.940;2023-04-20T12:45:43;13.36;38.66
33109;HTU21D;19481;51.118;6.940;2023-04-20T12:50:44;13.80;38.04
33109;HTU21D;19481;51.118;6.940;2023-04-20T12:55:46;13.65;38.76
33109;HTU21D;19481;51.118;6.940;2023-04-20T13:00:49;13.34;38.87
33109;HTU21D;19481;51.118;6.940;2023-04-20T13:05:50;12.44;40.13
33109;HTU21D;19481;51.118;6.940;2023-04-20T13:10:52;12.76;39.52
33109;HTU21D;19481;51.118;6.940;2023-04-20T13:15:55;12.79;39.19
33109;HTU21D;19481;51.118;6.940;2023-04-20T13:20:57;13.37;37.83
33109;HTU21D;19481;51.118;6.940;2023-04-20T13:25:58;13.83;36.78
33109;HTU21D;19481;51.118;6.940;2023-04-20T13:31:02;13.91;37.22
33109;HTU21D;19481;51.118;6.940;2023-04-20T13:36:04;13.81;37.84
33109;HTU21D;19481;51.118;6.940;2023-04-20T13:41:06;13.69;38.16
33109;HTU21D;19481;51.118;6.940;2023-04-20T13:46:09;14.24;36.62
33109;HTU21D;19481;51.118;6.940;2023-04-20T13:51:11;14.27;37.26
33109;HTU21D;19481;51.118;6.940;2023-04-20T13:56:13;13.79;38.15
33109;HTU21D;19481;51.118;6.940;2023-04-20T14:01:16;14.25;36.18
33109;HTU21D;19481;51.118;6.940;2023-04-20T14:06:18;14.48;36.53
33109;HTU21D;19481;51.118;6.940;2023-04-20T14:11:20;14.00;37.30
33109;HTU21D;19481;51.118;6.940;2023-04-20T14:16:23;14.54;34.83
33109;HTU21D;19481;51.118;6.940;2023-04-20T14:21:25;15.24;34.21
33109;HTU21D;19481;51.118;6.940;2023-04-20T14:26:27;15.08;35.47
33109;HTU21D;19481;51.118;6.940;2023-04-20T14:31:30;15.03;34.42
33109;HTU21D;19481;51.118;6.940;2023-04-20T14:36:32;14.98;34.89
33109;HTU21D;19481;51.118;6.940;2023-04-20T14:41:34;14.40;36.32
33109;HTU21D;19481;51.118;6.940;2023-04-20T14:46:38;14.13;35.28
33109;HTU21D;19481;51.118;6.940;2023-04-20T14:51:39;14.01;36.81
33109;HTU21D;19481;51.118;6.940;2023-04-20T14:56:41;13.63;37.26
33109;HTU21D;19481;51.118;6.940;2023-04-20T15:01:44;13.60;36.84
33109;HTU21D;19481;51.118;6.940;2023-04-20T15:06:46;13.77;36.33
33109;HTU21D;19481;51.118;6.940;2023-04-20T15:11:48;14.36;35.31
33109;HTU21D;19481;51.118;6.940;2023-04-20T15:16:51;14.36;35.40
33109;HTU21D;19481;51.118;6.940;2023-04-20T15:21:53;13.73;36.88
33109;HTU21D;19481;51.118;6.940;2023-04-20T15:26:54;13.86;36.54
33109;HTU21D;19481;51.118;6.940;2023-04-20T15:31:58;13.49;34.73
33109;HTU21D;19481;51.118;6.940;2023-04-20T15:37:00;13.58;36.30
33109;HTU21D;19481;51.118;6.940;2023-04-20T15:42:01;13.14;37.36
33109;HTU21D;19481;51.118;6.940;2023-04-20T15:47:04;13.29;35.91
33109;HTU21D;19481;51.118;6.940;2023-04-20T15:52:06;13.40;36.17
33109;HTU21D;19481;51.118;6.940;2023-04-20T15:57:08;13.44;35.99
33109;HTU21D;19481;51.118;6.940;2023-04-20T16:02:11;13.61;35.63
33109;HTU21D;19481;51.118;6.940;2023-04-20T16:07:13;13.55;35.69
33109;HTU21D;19481;51.118;6.940;2023-04-20T16:12:15;13.49;35.89
33109;HTU21D;19481;51.118;6.940;2023-04-20T16:17:18;13.38;35.56
33109;HTU21D;19481;51.118;6.940;2023-04-20T16:22:20;13.46;35.60
33109;HTU21D;19481;51.118;6.940;2023-04-20T16:27:22;13.40;35.68
33109;HTU21D;19481;51.118;6.940;2023-04-20T16:32:26;13.18;34.79
33109;HTU21D;19481;51.118;6.940;2023-04-20T16:37:28;12.90;36.05
33109;HTU21D;19481;51.118;6.940;2023-04-20T16:42:32;12.95;35.93
33109;HTU21D;19481;51.118;6.940;2023-04-20T16:47:35;13.25;34.77
33109;HTU21D;19481;51.118;6.940;2023-04-20T16:52:37;13.25;35.11
33109;HTU21D;19481;51.118;6.940;2023-04-20T16:57:39;13.21;35.62
33109;HTU21D;19481;51.118;6.940;2023-04-20T17:02:42;13.19;35.69
33109;HTU21D;19481;51.118;6.940;2023-04-20T17:07:44;13.02;36.09
33109;HTU21D;19481;51.118;6.940;2023-04-20T17:12:45;13.05;36.12
33109;HTU21D;19481;51.118;6.940;2023-04-20T17:17:48;13.10;36.18
33109;HTU21D;19481;51.118;6.940;2023-04-20T17:22:50;12.95;36.48
33109;HTU21D;19481;51.118;6.940;2023-04-20T17:27:52;12.90;36.45
33109;HTU21D;19481;51.118;6.940;2023-04-20T17:32:55;12.66;36.88
33109;HTU21D;19481;51.118;6.940;2023-04-20T17:37:58;12.00;38.88
33109;HTU21D;19481;51.118;6.940;2023-04-20T17:43:00;11.42;40.23
33109;HTU21D;19481;51.118;6.940;2023-04-20T17:48:04;10.90;41.98
33109;HTU21D;19481;51.118;6.940;2023-04-20T17:53:06;10.53;45.54
33109;HTU21D;19481;51.118;6.940;2023-04-20T17:58:09;10.41;44.45
33109;HTU21D;19481;51.118;6.940;2023-04-20T18:03:13;10.38;42.29
33109;HTU21D;19481;51.118;6.940;2023-04-20T18:08:15;10.37;42.23
33109;HTU21D;19481;51.118;6.940;2023-04-20T18:13:17;10.36;42.23
33109;HTU21D;19481;51.118;6.940;2023-04-20T18:18:21;10.39;44.84
33109;HTU21D;19481;51.118;6.940;2023-04-20T18:23:22;10.40;42.24
33109;HTU21D;19481;51.118;6.940;2023-04-20T18:28:24;10.37;43.14
33109;HTU21D;19481;51.118;6.940;2023-04-20T18:33:27;10.30;43.38
33109;HTU21D;19481;51.118;6.940;2023-04-20T18:38:28;10.19;43.80
33109;HTU21D;19481;51.118;6.940;2023-04-20T18:43:31;10.09;44.11
33109;HTU21D;19481;51.118;6.940;2023-04-20T18:48:34;9.88;44.96
33109;HTU21D;19481;51.118;6.940;2023-04-20T18:53:35;9.75;45.36
33109;HTU21D;19481;51.118;6.940;2023-04-20T18:58:37;9.64;45.67
33109;HTU21D;19481;51.118;6.940;2023-04-20T19:03:40;9.64;45.37
33109;HTU21D;19481;51.118;6.940;2023-04-20T19:08:42;9.60;45.41
33109;HTU21D;19481;51.118;6.940;2023-04-20T19:13:44;9.60;45.28
33109;HTU21D;19481;51.118;6.940;2023-04-20T19:18:47;9.59;45.39
33109;HTU21D;19481;51.118;6.940;2023-04-20T19:23:49;9.56;45.67
33109;HTU21D;19481;51.118;6.940;2023-04-20T19:28:51;9.62;45.43
33109;HTU21D;19481;51.118;6.940;2023-04-20T19:33:54;9.63;45.57
33109;HTU21D;19481;51.118;6.940;2023-04-20T19:38:55;9.60;45.88
33109;HTU21D;19481;51.118;6.940;2023-04-20T19:43:57;9.57;46.31
33109;HTU21D;19481;51.118;6.940;2023-04-20T19:49:02;9.55;48.44
33109;HTU21D;19481;51.118;6.940;2023-04-20T19:54:03;9.54;46.49
33109;HTU21D;19481;51.118;6.940;2023-04-20T19:59:05;9.52;46.78
33109;HTU21D;19481;51.118;6.940;2023-04-20T20:04:08;9.47;46.91
33109;HTU21D;19481;51.118;6.940;2023-04-20T20:09:10;9.42;47.50
33109;HTU21D;19481;51.118;6.940;2023-04-20T20:14:12;9.42;47.77
33109;HTU21D;19481;51.118;6.940;2023-04-20T20:19:15;9.41;48.41
33109;HTU21D;19481;51.118;6.940;2023-04-20T20:24:17;9.45;47.84
33109;HTU21D;19481;51.118;6.940;2023-04-20T20:29:19;9.38;48.49
33109;HTU21D;19481;51.118;6.940;2023-04-20T20:34:23;9.42;48.03
33109;HTU21D;19481;51.118;6.940;2023-04-20T20:39:25;9.33;48.97
33109;HTU21D;19481;51.118;6.940;2023-04-20T20:44:26;9.19;49.19
33109;HTU21D;19481;51.118;6.940;2023-04-20T20:49:33;9.01;50.45
33109;HTU21D;19481;51.118;6.940;2023-04-20T20:54:34;8.90;50.98
33109;HTU21D;19481;51.118;6.940;2023-04-20T20:59:36;8.74;51.65
33109;HTU21D;19481;51.118;6.940;2023-04-20T21:04:39;8.63;52.42
33109;HTU21D;19481;51.118;6.940;2023-04-20T21:09:41;8.48;54.34
33109;HTU21D;19481;51.118;6.940;2023-04-20T21:14:42;8.35;53.38
33109;HTU21D;19481;51.118;6.940;2023-04-20T21:19:45;8.27;53.74
33109;HTU21D;19481;51.118;6.940;2023-04-20T21:24:47;8.23;54.07
33109;HTU21D;19481;51.118;6.940;2023-04-20T21:29:49;8.18;54.53
33109;HTU21D;19481;51.118;6.940;2023-04-20T21:34:51;8.23;53.94
33109;HTU21D;19481;51.118;6.940;2023-04-20T21:39:53;8.29;54.33
33109;HTU21D;19481;51.118;6.940;2023-04-20T21:44:55;8.24;54.85
33109;HTU21D;19481;51.118;6.940;2023-04-20T21:49:58;8.24;54.55
33109;HTU21D;19481;51.118;6.940;2023-04-20T21:55:00;8.24;54.68
33109;HTU21D;19481;51.118;6.940;2023-04-20T22:00:01;8.20;55.60
33109;HTU21D;19481;51.118;6.940;2023-04-20T22:05:06;8.24;54.71
33109;HTU21D;19481;51.118;6.940;2023-04-20T22:10:09;8.27;54.89
33109;HTU21D;19481;51.118;6.940;2023-04-20T22:15:12;8.17;55.03
33109;HTU21D;19481;51.118;6.940;2023-04-20T22:20:15;8.17;55.08
33109;HTU21D;19481;51.118;6.940;2023-04-20T22:25:18;8.20;55.49
33109;HTU21D;19481;51.118;6.940;2023-04-20T22:30:20;8.27;55.08
33109;HTU21D;19481;51.118;6.940;2023-04-20T22:35:23;8.27;55.11
33109;HTU21D;19481;51.118;6.940;2023-04-20T22:40:24;8.23;55.61
33109;HTU21D;19481;51.118;6.940;2023-04-20T22:45:26;8.30;55.53
33109;HTU21D;19481;51.118;6.940;2023-04-20T22:50:29;8.31;55.76
33109;HTU21D;19481;51.118;6.940;2023-04-20T22:55:31;8.26;56.23
33109;HTU21D;19481;51.118;6.940;2023-04-20T23:00:32;8.26;56.46
33109;HTU21D;19481;51.118;6.940;2023-04-20T23:05:35;8.33;55.99
33109;HTU21D;19481;51.118;6.940;2023-04-20T23:10:38;8.21;57.19
33109;HTU21D;19481;51.118;6.940;2023-04-20T23:15:40;8.20;57.82
33109;HTU21D;19481;51.118;6.940;2023-04-20T23:20:43;8.14;58.06
33109;HTU21D;19481;51.118;6.940;2023-04-20T23:25:44;8.14;58.01
33109;HTU21D;19481;51.118;6.940;2023-04-20T23:30:46;8.16;57.84
33109;HTU21D;19481;51.118;6.940;2023-04-20T23:35:49;8.17;57.44
33109;HTU21D;19481;51.118;6.940;2023-04-20T23:40:51;8.09;58.51
33109;HTU21D;19481;51.118;6.940;2023-04-20T23:45:52;8.15;58.23
33109;HTU21D;19481;51.118;6.940;2023-04-20T23:50:55;8.19;57.95
33109;HTU21D;19481;51.118;6.940;2023-04-20T23:55:57;8.22;58.22
